KAID/AID METAR and TAF weather

Enter ICAO airport designator
Station Type Date Time Source
KAID METAR 2021/07/28 18:55 UTC NOAA

KAID 281855Z 00000KT 10SM SCT040 29/18 A3007


Station Type Date Time Source
KAID Decoded METAR 2021/07/28 18:55 UTC NOAA

Anderson Municipal, IN, United States (KAID) 40-07N 085-37W
Jul 28, 2021 - 02:55 PM EDT / 2021.07.28 1855 UTC
Wind: Calm:0
Visibility: 10 mile(s):0
Sky conditions: partly cloudy
Temperature: 84 F (29 C)
Dew Point: 64 F (18 C)
Relative Humidity: 51%
Pressure (altimeter): 30.07 in. Hg (1018 hPa)
ob: KAID 281855Z 00000KT 10SM SCT040 29/18 A3007
cycle: 19

Station Type Date Time Source
KAID TAF UTC NOAA

Error!

Example: see airport list